Pacific, Washington
Current Conditions -  °F | °C
As of 7:58 AM on Tuesday 21 Oct 2014 (Local Time) from KTCM Reporting Station
Few Clouds Few Clouds  
Wind Chill: 51°   Ceiling: Unl
Heat Index: 51°   Visibility: 10mi
Dew Point: 51°   Wind: 9mph
Humidity: 99%   Direction: 180°S
Pressure: 29.89"   Gusts: NA
Location:  47.26°N, 122.25°W
Report Text: KTCM 211458Z AUTO 18008KT 10SM FEW049 11/11 A2989 RMK AO2 RAB1400E1415 SLP126 P0003 60003 T01080106 52017 $
Loading
Personal Weather Stations






























Interactive Weather Map
Tropical Storm Tracking
New forecast layout! Learn more

10-Day Weather Forecast

Advertisements
Track Severe Weather on mobile